sensor_id;sensor_type;location;lat;lon;timestamp;P1;durP1;ratioP1;P2;durP2;ratioP2
70303;SDS011;57712;48.752;11.348;2023-06-22T00:01:28;14.60;;;7.95;;
70303;SDS011;57712;48.752;11.348;2023-06-22T00:04:53;14.05;;;8.45;;
70303;SDS011;57712;48.752;11.348;2023-06-22T00:08:19;13.47;;;7.70;;
70303;SDS011;57712;48.752;11.348;2023-06-22T00:11:45;14.63;;;8.20;;
70303;SDS011;57712;48.752;11.348;2023-06-22T00:15:10;13.55;;;7.75;;
70303;SDS011;57712;48.752;11.348;2023-06-22T00:18:35;13.85;;;8.48;;
70303;SDS011;57712;48.752;11.348;2023-06-22T00:22:02;15.65;;;8.25;;
70303;SDS011;57712;48.752;11.348;2023-06-22T00:25:27;12.57;;;7.90;;
70303;SDS011;57712;48.752;11.348;2023-06-22T00:28:52;13.38;;;7.72;;
70303;SDS011;57712;48.752;11.348;2023-06-22T00:32:18;13.30;;;8.52;;
70303;SDS011;57712;48.752;11.348;2023-06-22T00:35:43;14.95;;;8.88;;
70303;SDS011;57712;48.752;11.348;2023-06-22T00:39:08;16.05;;;8.50;;
70303;SDS011;57712;48.752;11.348;2023-06-22T00:42:35;14.30;;;8.83;;
70303;SDS011;57712;48.752;11.348;2023-06-22T00:46:00;15.27;;;8.48;;
70303;SDS011;57712;48.752;11.348;2023-06-22T00:49:26;13.48;;;8.60;;
70303;SDS011;57712;48.752;11.348;2023-06-22T00:52:57;12.98;;;7.82;;
70303;SDS011;57712;48.752;11.348;2023-06-22T00:56:22;15.40;;;9.02;;
70303;SDS011;57712;48.752;11.348;2023-06-22T00:59:48;13.53;;;7.97;;
70303;SDS011;57712;48.752;11.348;2023-06-22T01:03:14;14.63;;;8.38;;
70303;SDS011;57712;48.752;11.348;2023-06-22T01:06:51;14.80;;;8.15;;
70303;SDS011;57712;48.752;11.348;2023-06-22T01:10:25;14.48;;;7.53;;
70303;SDS011;57712;48.752;11.348;2023-06-22T01:14:23;12.93;;;7.95;;
70303;SDS011;57712;48.752;11.348;2023-06-22T01:17:56;13.23;;;7.60;;
70303;SDS011;57712;48.752;11.348;2023-06-22T01:21:24;13.10;;;7.28;;
70303;SDS011;57712;48.752;11.348;2023-06-22T01:28:43;11.27;;;7.00;;
70303;SDS011;57712;48.752;11.348;2023-06-22T01:32:10;13.95;;;8.07;;
70303;SDS011;57712;48.752;11.348;2023-06-22T01:35:39;12.43;;;7.57;;
70303;SDS011;57712;48.752;11.348;2023-06-22T01:39:05;13.40;;;7.97;;
70303;SDS011;57712;48.752;11.348;2023-06-22T01:42:35;12.00;;;7.63;;
70303;SDS011;57712;48.752;11.348;2023-06-22T01:46:02;14.35;;;7.35;;
70303;SDS011;57712;48.752;11.348;2023-06-22T01:49:28;15.48;;;7.55;;
70303;SDS011;57712;48.752;11.348;2023-06-22T01:52:54;13.37;;;8.70;;
70303;SDS011;57712;48.752;11.348;2023-06-22T01:56:20;13.93;;;7.85;;
70303;SDS011;57712;48.752;11.348;2023-06-22T02:03:22;13.77;;;8.82;;
70303;SDS011;57712;48.752;11.348;2023-06-22T02:06:51;14.48;;;7.82;;
70303;SDS011;57712;48.752;11.348;2023-06-22T02:10:24;15.17;;;7.73;;
70303;SDS011;57712;48.752;11.348;2023-06-22T02:13:52;13.30;;;8.00;;
70303;SDS011;57712;48.752;11.348;2023-06-22T02:17:18;14.38;;;7.47;;
70303;SDS011;57712;48.752;11.348;2023-06-22T02:20:43;14.43;;;8.15;;
70303;SDS011;57712;48.752;11.348;2023-06-22T02:24:08;12.45;;;7.70;;
70303;SDS011;57712;48.752;11.348;2023-06-22T02:27:34;13.37;;;7.50;;
70303;SDS011;57712;48.752;11.348;2023-06-22T02:30:59;14.55;;;7.60;;
70303;SDS011;57712;48.752;11.348;2023-06-22T02:34:24;14.75;;;7.93;;
70303;SDS011;57712;48.752;11.348;2023-06-22T02:37:50;11.82;;;7.00;;
70303;SDS011;57712;48.752;11.348;2023-06-22T02:41:15;13.65;;;7.30;;
70303;SDS011;57712;48.752;11.348;2023-06-22T02:44:41;13.53;;;8.07;;
70303;SDS011;57712;48.752;11.348;2023-06-22T02:48:07;13.45;;;7.47;;
70303;SDS011;57712;48.752;11.348;2023-06-22T02:51:33;14.85;;;7.30;;
70303;SDS011;57712;48.752;11.348;2023-06-22T02:54:58;11.65;;;6.60;;
70303;SDS011;57712;48.752;11.348;2023-06-22T02:58:23;11.95;;;7.82;;
70303;SDS011;57712;48.752;11.348;2023-06-22T03:01:50;13.23;;;7.20;;
70303;SDS011;57712;48.752;11.348;2023-06-22T03:05:16;13.63;;;7.57;;
70303;SDS011;57712;48.752;11.348;2023-06-22T03:08:42;12.38;;;7.28;;
70303;SDS011;57712;48.752;11.348;2023-06-22T03:12:08;12.57;;;7.40;;
70303;SDS011;57712;48.752;11.348;2023-06-22T03:15:33;11.43;;;7.22;;
70303;SDS011;57712;48.752;11.348;2023-06-22T03:19:00;13.00;;;7.37;;
70303;SDS011;57712;48.752;11.348;2023-06-22T03:22:25;13.38;;;6.70;;
70303;SDS011;57712;48.752;11.348;2023-06-22T03:25:50;13.02;;;7.43;;
70303;SDS011;57712;48.752;11.348;2023-06-22T03:29:15;11.80;;;7.28;;
70303;SDS011;57712;48.752;11.348;2023-06-22T03:32:41;11.68;;;7.53;;
70303;SDS011;57712;48.752;11.348;2023-06-22T03:36:06;16.80;;;8.07;;
70303;SDS011;57712;48.752;11.348;2023-06-22T03:39:32;12.50;;;7.13;;
70303;SDS011;57712;48.752;11.348;2023-06-22T03:42:57;12.30;;;7.50;;
70303;SDS011;57712;48.752;11.348;2023-06-22T03:46:22;13.02;;;7.00;;
70303;SDS011;57712;48.752;11.348;2023-06-22T03:49:48;12.77;;;7.35;;
70303;SDS011;57712;48.752;11.348;2023-06-22T03:53:13;14.60;;;7.60;;
70303;SDS011;57712;48.752;11.348;2023-06-22T03:56:38;12.68;;;7.05;;
70303;SDS011;57712;48.752;11.348;2023-06-22T04:00:04;15.38;;;7.50;;
70303;SDS011;57712;48.752;11.348;2023-06-22T04:03:29;15.90;;;7.90;;
70303;SDS011;57712;48.752;11.348;2023-06-22T04:06:55;12.30;;;7.05;;
70303;SDS011;57712;48.752;11.348;2023-06-22T04:10:20;12.17;;;6.60;;
70303;SDS011;57712;48.752;11.348;2023-06-22T04:13:45;13.38;;;6.90;;
70303;SDS011;57712;48.752;11.348;2023-06-22T04:17:11;11.80;;;7.10;;
70303;SDS011;57712;48.752;11.348;2023-06-22T04:20:36;11.05;;;6.93;;
70303;SDS011;57712;48.752;11.348;2023-06-22T04:24:01;11.82;;;6.35;;
70303;SDS011;57712;48.752;11.348;2023-06-22T04:27:26;14.10;;;6.93;;
70303;SDS011;57712;48.752;11.348;2023-06-22T04:30:53;11.77;;;6.38;;
70303;SDS011;57712;48.752;11.348;2023-06-22T04:34:19;11.40;;;6.13;;
70303;SDS011;57712;48.752;11.348;2023-06-22T04:37:44;10.15;;;6.20;;
70303;SDS011;57712;48.752;11.348;2023-06-22T04:41:10;10.45;;;5.90;;
70303;SDS011;57712;48.752;11.348;2023-06-22T04:44:36;12.40;;;6.27;;
70303;SDS011;57712;48.752;11.348;2023-06-22T04:48:04;10.95;;;6.22;;
70303;SDS011;57712;48.752;11.348;2023-06-22T04:51:40;10.50;;;6.47;;
70303;SDS011;57712;48.752;11.348;2023-06-22T04:55:05;11.30;;;6.45;;
70303;SDS011;57712;48.752;11.348;2023-06-22T04:58:34;10.80;;;6.93;;
70303;SDS011;57712;48.752;11.348;2023-06-22T05:02:00;12.53;;;6.37;;
70303;SDS011;57712;48.752;11.348;2023-06-22T05:05:44;10.88;;;6.35;;
70303;SDS011;57712;48.752;11.348;2023-06-22T05:09:09;13.30;;;6.38;;
70303;SDS011;57712;48.752;11.348;2023-06-22T05:12:35;10.10;;;6.47;;
70303;SDS011;57712;48.752;11.348;2023-06-22T05:16:01;11.15;;;6.45;;
70303;SDS011;57712;48.752;11.348;2023-06-22T05:19:30;11.00;;;6.33;;
70303;SDS011;57712;48.752;11.348;2023-06-22T05:22:57;11.20;;;6.15;;
70303;SDS011;57712;48.752;11.348;2023-06-22T05:26:26;9.75;;;5.78;;
70303;SDS011;57712;48.752;11.348;2023-06-22T05:29:51;10.38;;;6.40;;
70303;SDS011;57712;48.752;11.348;2023-06-22T05:33:20;12.05;;;6.95;;
70303;SDS011;57712;48.752;11.348;2023-06-22T05:36:45;12.73;;;6.27;;
70303;SDS011;57712;48.752;11.348;2023-06-22T05:40:12;11.77;;;6.47;;
70303;SDS011;57712;48.752;11.348;2023-06-22T05:43:37;11.90;;;6.20;;
70303;SDS011;57712;48.752;11.348;2023-06-22T05:47:04;11.35;;;6.50;;
70303;SDS011;57712;48.752;11.348;2023-06-22T05:50:30;13.32;;;6.63;;
70303;SDS011;57712;48.752;11.348;2023-06-22T05:53:55;10.70;;;5.63;;
70303;SDS011;57712;48.752;11.348;2023-06-22T05:57:20;11.00;;;5.70;;
70303;SDS011;57712;48.752;11.348;2023-06-22T06:00:46;9.85;;;5.53;;
70303;SDS011;57712;48.752;11.348;2023-06-22T06:04:11;9.90;;;5.40;;
70303;SDS011;57712;48.752;11.348;2023-06-22T06:07:37;9.48;;;5.47;;
70303;SDS011;57712;48.752;11.348;2023-06-22T06:11:03;8.60;;;4.97;;
70303;SDS011;57712;48.752;11.348;2023-06-22T06:14:29;11.48;;;5.53;;
70303;SDS011;57712;48.752;11.348;2023-06-22T06:18:00;14.88;;;5.50;;
70303;SDS011;57712;48.752;11.348;2023-06-22T06:21:25;9.60;;;5.05;;
70303;SDS011;57712;48.752;11.348;2023-06-22T06:24:50;10.13;;;5.50;;
70303;SDS011;57712;48.752;11.348;2023-06-22T06:28:15;10.27;;;5.00;;
70303;SDS011;57712;48.752;11.348;2023-06-22T06:31:42;12.52;;;5.97;;
70303;SDS011;57712;48.752;11.348;2023-06-22T06:35:09;10.65;;;5.75;;
70303;SDS011;57712;48.752;11.348;2023-06-22T06:38:35;10.02;;;5.40;;
70303;SDS011;57712;48.752;11.348;2023-06-22T06:42:00;10.05;;;5.40;;
70303;SDS011;57712;48.752;11.348;2023-06-22T06:45:25;10.13;;;4.80;;
70303;SDS011;57712;48.752;11.348;2023-06-22T06:48:51;9.60;;;5.20;;
70303;SDS011;57712;48.752;11.348;2023-06-22T06:52:16;9.90;;;4.70;;
70303;SDS011;57712;48.752;11.348;2023-06-22T06:55:41;11.00;;;4.63;;
70303;SDS011;57712;48.752;11.348;2023-06-22T06:59:07;8.48;;;4.43;;
70303;SDS011;57712;48.752;11.348;2023-06-22T07:02:37;7.60;;;3.93;;
70303;SDS011;57712;48.752;11.348;2023-06-22T07:06:02;8.43;;;4.03;;
70303;SDS011;57712;48.752;11.348;2023-06-22T07:09:29;8.85;;;4.30;;
70303;SDS011;57712;48.752;11.348;2023-06-22T07:12:55;9.27;;;4.35;;
70303;SDS011;57712;48.752;11.348;2023-06-22T07:16:20;9.63;;;4.60;;
70303;SDS011;57712;48.752;11.348;2023-06-22T07:19:45;8.07;;;4.97;;
70303;SDS011;57712;48.752;11.348;2023-06-22T07:23:11;9.50;;;4.80;;
70303;SDS011;57712;48.752;11.348;2023-06-22T07:26:36;9.60;;;4.57;;
70303;SDS011;57712;48.752;11.348;2023-06-22T07:30:09;6.80;;;4.07;;
70303;SDS011;57712;48.752;11.348;2023-06-22T07:33:35;10.55;;;5.05;;
70303;SDS011;57712;48.752;11.348;2023-06-22T07:37:00;8.07;;;4.10;;
70303;SDS011;57712;48.752;11.348;2023-06-22T07:40:30;8.77;;;4.85;;
70303;SDS011;57712;48.752;11.348;2023-06-22T07:43:59;8.65;;;3.88;;
70303;SDS011;57712;48.752;11.348;2023-06-22T07:47:24;9.82;;;4.78;;
70303;SDS011;57712;48.752;11.348;2023-06-22T07:50:49;9.00;;;4.38;;
70303;SDS011;57712;48.752;11.348;2023-06-22T07:54:15;9.17;;;4.50;;
70303;SDS011;57712;48.752;11.348;2023-06-22T07:57:40;9.05;;;4.40;;
70303;SDS011;57712;48.752;11.348;2023-06-22T08:01:06;8.73;;;3.85;;
70303;SDS011;57712;48.752;11.348;2023-06-22T08:04:31;9.60;;;4.20;;
70303;SDS011;57712;48.752;11.348;2023-06-22T08:07:57;8.23;;;4.70;;
70303;SDS011;57712;48.752;11.348;2023-06-22T08:11:25;7.20;;;3.60;;
70303;SDS011;57712;48.752;11.348;2023-06-22T08:14:50;9.00;;;4.35;;
70303;SDS011;57712;48.752;11.348;2023-06-22T08:18:16;8.88;;;4.28;;
70303;SDS011;57712;48.752;11.348;2023-06-22T08:21:43;7.95;;;3.97;;
70303;SDS011;57712;48.752;11.348;2023-06-22T08:25:09;7.40;;;4.03;;
70303;SDS011;57712;48.752;11.348;2023-06-22T08:28:35;8.50;;;3.70;;
70303;SDS011;57712;48.752;11.348;2023-06-22T08:32:00;8.10;;;3.60;;
70303;SDS011;57712;48.752;11.348;2023-06-22T08:35:25;8.65;;;4.10;;
70303;SDS011;57712;48.752;11.348;2023-06-22T08:38:51;8.60;;;3.55;;
70303;SDS011;57712;48.752;11.348;2023-06-22T08:42:16;7.90;;;3.63;;
70303;SDS011;57712;48.752;11.348;2023-06-22T08:45:42;10.73;;;3.43;;
70303;SDS011;57712;48.752;11.348;2023-06-22T08:49:08;8.98;;;3.90;;
70303;SDS011;57712;48.752;11.348;2023-06-22T08:52:35;8.90;;;4.22;;
70303;SDS011;57712;48.752;11.348;2023-06-22T08:56:01;10.70;;;3.47;;
70303;SDS011;57712;48.752;11.348;2023-06-22T08:59:29;7.95;;;3.72;;
70303;SDS011;57712;48.752;11.348;2023-06-22T09:02:55;8.60;;;4.03;;
70303;SDS011;57712;48.752;11.348;2023-06-22T09:06:22;10.63;;;3.97;;
70303;SDS011;57712;48.752;11.348;2023-06-22T09:09:52;10.70;;;3.78;;
70303;SDS011;57712;48.752;11.348;2023-06-22T09:13:17;8.73;;;3.47;;
70303;SDS011;57712;48.752;11.348;2023-06-22T09:16:43;8.73;;;4.20;;
70303;SDS011;57712;48.752;11.348;2023-06-22T09:20:10;9.43;;;3.90;;
70303;SDS011;57712;48.752;11.348;2023-06-22T09:23:36;13.30;;;4.57;;
70303;SDS011;57712;48.752;11.348;2023-06-22T09:27:02;11.48;;;4.55;;
70303;SDS011;57712;48.752;11.348;2023-06-22T09:30:27;12.13;;;4.50;;
70303;SDS011;57712;48.752;11.348;2023-06-22T09:33:53;9.02;;;3.95;;
70303;SDS011;57712;48.752;11.348;2023-06-22T09:37:18;9.40;;;3.83;;
70303;SDS011;57712;48.752;11.348;2023-06-22T09:40:44;9.23;;;3.60;;
70303;SDS011;57712;48.752;11.348;2023-06-22T09:44:09;11.10;;;4.50;;
70303;SDS011;57712;48.752;11.348;2023-06-22T09:47:34;11.02;;;4.55;;
70303;SDS011;57712;48.752;11.348;2023-06-22T09:50:59;10.35;;;4.93;;
70303;SDS011;57712;48.752;11.348;2023-06-22T09:54:30;10.63;;;4.53;;
70303;SDS011;57712;48.752;11.348;2023-06-22T09:57:55;10.55;;;4.93;;
70303;SDS011;57712;48.752;11.348;2023-06-22T10:01:31;9.32;;;4.40;;
70303;SDS011;57712;48.752;11.348;2023-06-22T10:04:56;9.60;;;4.50;;
70303;SDS011;57712;48.752;11.348;2023-06-22T10:08:22;11.48;;;4.43;;
70303;SDS011;57712;48.752;11.348;2023-06-22T10:11:47;12.93;;;5.50;;
70303;SDS011;57712;48.752;11.348;2023-06-22T10:15:14;8.85;;;4.57;;
70303;SDS011;57712;48.752;11.348;2023-06-22T10:18:39;9.07;;;4.85;;
70303;SDS011;57712;48.752;11.348;2023-06-22T10:22:05;13.48;;;4.80;;
70303;SDS011;57712;48.752;11.348;2023-06-22T10:25:30;9.90;;;4.93;;
70303;SDS011;57712;48.752;11.348;2023-06-22T10:28:55;11.40;;;5.60;;
70303;SDS011;57712;48.752;11.348;2023-06-22T10:32:21;13.02;;;4.95;;
70303;SDS011;57712;48.752;11.348;2023-06-22T10:35:47;12.00;;;4.50;;
70303;SDS011;57712;48.752;11.348;2023-06-22T10:39:15;11.70;;;5.03;;
70303;SDS011;57712;48.752;11.348;2023-06-22T10:42:41;10.10;;;4.65;;
70303;SDS011;57712;48.752;11.348;2023-06-22T10:46:07;12.03;;;4.43;;
70303;SDS011;57712;48.752;11.348;2023-06-22T10:49:32;9.82;;;4.45;;
70303;SDS011;57712;48.752;11.348;2023-06-22T10:52:57;9.85;;;5.10;;
70303;SDS011;57712;48.752;11.348;2023-06-22T10:56:22;8.65;;;4.93;;
70303;SDS011;57712;48.752;11.348;2023-06-22T10:59:48;13.38;;;4.88;;
70303;SDS011;57712;48.752;11.348;2023-06-22T11:03:13;12.70;;;4.97;;
70303;SDS011;57712;48.752;11.348;2023-06-22T11:06:39;11.63;;;4.93;;
70303;SDS011;57712;48.752;11.348;2023-06-22T11:10:09;10.68;;;4.88;;
70303;SDS011;57712;48.752;11.348;2023-06-22T11:13:34;10.00;;;4.93;;
70303;SDS011;57712;48.752;11.348;2023-06-22T11:17:00;12.23;;;5.38;;
70303;SDS011;57712;48.752;11.348;2023-06-22T11:20:25;11.70;;;5.00;;
70303;SDS011;57712;48.752;11.348;2023-06-22T11:23:50;9.35;;;4.90;;
70303;SDS011;57712;48.752;11.348;2023-06-22T11:27:15;11.43;;;4.70;;
70303;SDS011;57712;48.752;11.348;2023-06-22T11:30:41;11.40;;;5.68;;
70303;SDS011;57712;48.752;11.348;2023-06-22T11:34:06;8.48;;;4.97;;
70303;SDS011;57712;48.752;11.348;2023-06-22T11:37:32;10.77;;;5.10;;
70303;SDS011;57712;48.752;11.348;2023-06-22T11:40:58;10.63;;;5.45;;
70303;SDS011;57712;48.752;11.348;2023-06-22T11:44:24;11.48;;;5.10;;
70303;SDS011;57712;48.752;11.348;2023-06-22T11:47:50;12.75;;;5.03;;
70303;SDS011;57712;48.752;11.348;2023-06-22T11:51:16;9.02;;;4.63;;
70303;SDS011;57712;48.752;11.348;2023-06-22T11:54:41;10.23;;;4.63;;
70303;SDS011;57712;48.752;11.348;2023-06-22T11:58:06;10.70;;;6.03;;
70303;SDS011;57712;48.752;11.348;2023-06-22T12:01:31;9.48;;;4.45;;
70303;SDS011;57712;48.752;11.348;2023-06-22T12:04:57;11.50;;;4.60;;
70303;SDS011;57712;48.752;11.348;2023-06-22T12:08:22;11.68;;;5.18;;
70303;SDS011;57712;48.752;11.348;2023-06-22T12:11:47;12.00;;;5.00;;
70303;SDS011;57712;48.752;11.348;2023-06-22T12:15:12;11.25;;;4.75;;
70303;SDS011;57712;48.752;11.348;2023-06-22T12:18:38;14.38;;;5.43;;
70303;SDS011;57712;48.752;11.348;2023-06-22T12:22:03;10.65;;;4.78;;
70303;SDS011;57712;48.752;11.348;2023-06-22T12:25:28;11.88;;;5.75;;
70303;SDS011;57712;48.752;11.348;2023-06-22T12:28:53;12.73;;;5.47;;
70303;SDS011;57712;48.752;11.348;2023-06-22T12:32:19;12.13;;;5.30;;
70303;SDS011;57712;48.752;11.348;2023-06-22T12:35:44;11.20;;;5.45;;
70303;SDS011;57712;48.752;11.348;2023-06-22T12:39:09;11.93;;;5.13;;
70303;SDS011;57712;48.752;11.348;2023-06-22T12:42:35;13.43;;;5.75;;
70303;SDS011;57712;48.752;11.348;2023-06-22T12:46:00;12.87;;;4.87;;
70303;SDS011;57712;48.752;11.348;2023-06-22T12:49:25;13.60;;;5.38;;
70303;SDS011;57712;48.752;11.348;2023-06-22T12:52:50;14.68;;;5.68;;
70303;SDS011;57712;48.752;11.348;2023-06-22T12:56:15;11.90;;;5.55;;
70303;SDS011;57712;48.752;11.348;2023-06-22T12:59:41;11.07;;;5.32;;
70303;SDS011;57712;48.752;11.348;2023-06-22T13:03:06;11.23;;;4.97;;
70303;SDS011;57712;48.752;11.348;2023-06-22T13:06:31;14.15;;;5.35;;
70303;SDS011;57712;48.752;11.348;2023-06-22T13:09:57;12.63;;;5.35;;
70303;SDS011;57712;48.752;11.348;2023-06-22T13:13:25;12.57;;;5.15;;
70303;SDS011;57712;48.752;11.348;2023-06-22T13:16:50;13.73;;;5.78;;
70303;SDS011;57712;48.752;11.348;2023-06-22T13:20:16;11.73;;;5.20;;
70303;SDS011;57712;48.752;11.348;2023-06-22T13:23:41;14.48;;;5.40;;
70303;SDS011;57712;48.752;11.348;2023-06-22T13:27:06;14.52;;;6.05;;
70303;SDS011;57712;48.752;11.348;2023-06-22T13:30:37;14.13;;;5.50;;
70303;SDS011;57712;48.752;11.348;2023-06-22T13:34:03;10.40;;;5.28;;
70303;SDS011;57712;48.752;11.348;2023-06-22T13:37:28;13.23;;;5.37;;
70303;SDS011;57712;48.752;11.348;2023-06-22T13:40:54;11.50;;;5.20;;
70303;SDS011;57712;48.752;11.348;2023-06-22T13:44:19;12.98;;;6.30;;
70303;SDS011;57712;48.752;11.348;2023-06-22T13:47:45;10.60;;;4.88;;
70303;SDS011;57712;48.752;11.348;2023-06-22T13:51:10;13.40;;;6.28;;
70303;SDS011;57712;48.752;11.348;2023-06-22T13:54:36;12.17;;;5.27;;
70303;SDS011;57712;48.752;11.348;2023-06-22T13:58:01;13.07;;;5.43;;
70303;SDS011;57712;48.752;11.348;2023-06-22T14:01:27;12.90;;;5.88;;
70303;SDS011;57712;48.752;11.348;2023-06-22T14:04:52;11.45;;;5.13;;
70303;SDS011;57712;48.752;11.348;2023-06-22T14:08:20;11.52;;;5.63;;
70303;SDS011;57712;48.752;11.348;2023-06-22T14:11:45;11.97;;;4.97;;
70303;SDS011;57712;48.752;11.348;2023-06-22T14:15:11;14.18;;;5.88;;
70303;SDS011;57712;48.752;11.348;2023-06-22T14:18:36;11.00;;;6.18;;
70303;SDS011;57712;48.752;11.348;2023-06-22T14:22:02;10.50;;;5.53;;
70303;SDS011;57712;48.752;11.348;2023-06-22T14:25:27;12.45;;;5.15;;
70303;SDS011;57712;48.752;11.348;2023-06-22T14:28:52;12.47;;;6.23;;
70303;SDS011;57712;48.752;11.348;2023-06-22T14:32:18;12.27;;;5.63;;
70303;SDS011;57712;48.752;11.348;2023-06-22T14:35:43;10.48;;;5.30;;
70303;SDS011;57712;48.752;11.348;2023-06-22T14:39:10;13.80;;;5.35;;
70303;SDS011;57712;48.752;11.348;2023-06-22T14:42:36;13.45;;;6.75;;
70303;SDS011;57712;48.752;11.348;2023-06-22T14:46:01;16.43;;;5.23;;
70303;SDS011;57712;48.752;11.348;2023-06-22T14:49:26;10.25;;;5.60;;
70303;SDS011;57712;48.752;11.348;2023-06-22T14:52:53;13.32;;;6.07;;
70303;SDS011;57712;48.752;11.348;2023-06-22T14:56:18;9.02;;;4.55;;
70303;SDS011;57712;48.752;11.348;2023-06-22T14:59:46;12.20;;;5.97;;
70303;SDS011;57712;48.752;11.348;2023-06-22T15:03:11;14.70;;;5.87;;
70303;SDS011;57712;48.752;11.348;2023-06-22T15:06:37;12.48;;;4.80;;
70303;SDS011;57712;48.752;11.348;2023-06-22T15:10:03;14.25;;;6.10;;
70303;SDS011;57712;48.752;11.348;2023-06-22T15:13:30;12.05;;;4.95;;
70303;SDS011;57712;48.752;11.348;2023-06-22T15:16:56;10.40;;;4.90;;
70303;SDS011;57712;48.752;11.348;2023-06-22T15:20:21;16.93;;;6.77;;
70303;SDS011;57712;48.752;11.348;2023-06-22T15:23:47;18.60;;;5.68;;
70303;SDS011;57712;48.752;11.348;2023-06-22T15:27:14;12.18;;;5.55;;
70303;SDS011;57712;48.752;11.348;2023-06-22T15:30:39;10.73;;;5.28;;
70303;SDS011;57712;48.752;11.348;2023-06-22T15:34:05;11.25;;;5.72;;
70303;SDS011;57712;48.752;11.348;2023-06-22T15:37:30;14.93;;;5.20;;
70303;SDS011;57712;48.752;11.348;2023-06-22T15:40:57;12.40;;;6.40;;
70303;SDS011;57712;48.752;11.348;2023-06-22T15:44:23;14.13;;;6.18;;
70303;SDS011;57712;48.752;11.348;2023-06-22T15:47:48;11.68;;;5.35;;
70303;SDS011;57712;48.752;11.348;2023-06-22T15:51:16;13.75;;;5.78;;
70303;SDS011;57712;48.752;11.348;2023-06-22T15:54:45;11.27;;;4.83;;
70303;SDS011;57712;48.752;11.348;2023-06-22T15:58:13;10.93;;;5.05;;
70303;SDS011;57712;48.752;11.348;2023-06-22T16:01:38;14.10;;;6.05;;
70303;SDS011;57712;48.752;11.348;2023-06-22T16:05:04;13.40;;;5.72;;
70303;SDS011;57712;48.752;11.348;2023-06-22T16:08:29;14.40;;;6.00;;
70303;SDS011;57712;48.752;11.348;2023-06-22T16:11:55;13.37;;;5.77;;
70303;SDS011;57712;48.752;11.348;2023-06-22T16:15:20;14.45;;;5.97;;
70303;SDS011;57712;48.752;11.348;2023-06-22T16:18:46;12.93;;;5.65;;
70303;SDS011;57712;48.752;11.348;2023-06-22T16:22:11;11.85;;;5.30;;
70303;SDS011;57712;48.752;11.348;2023-06-22T16:25:36;10.43;;;5.72;;
70303;SDS011;57712;48.752;11.348;2023-06-22T16:29:06;13.00;;;6.03;;
70303;SDS011;57712;48.752;11.348;2023-06-22T16:32:34;11.88;;;5.30;;
70303;SDS011;57712;48.752;11.348;2023-06-22T16:35:59;13.18;;;5.43;;
70303;SDS011;57712;48.752;11.348;2023-06-22T16:39:25;16.83;;;6.20;;
70303;SDS011;57712;48.752;11.348;2023-06-22T16:42:51;11.32;;;5.65;;
70303;SDS011;57712;48.752;11.348;2023-06-22T16:46:16;11.90;;;5.43;;
70303;SDS011;57712;48.752;11.348;2023-06-22T16:49:41;13.45;;;5.15;;
70303;SDS011;57712;48.752;11.348;2023-06-22T16:53:06;14.15;;;5.38;;
70303;SDS011;57712;48.752;11.348;2023-06-22T16:56:32;12.30;;;6.28;;
70303;SDS011;57712;48.752;11.348;2023-06-22T16:59:58;12.43;;;6.17;;
70303;SDS011;57712;48.752;11.348;2023-06-22T17:03:30;12.10;;;5.77;;
70303;SDS011;57712;48.752;11.348;2023-06-22T17:07:13;12.98;;;6.07;;
70303;SDS011;57712;48.752;11.348;2023-06-22T17:10:40;12.82;;;5.80;;
70303;SDS011;57712;48.752;11.348;2023-06-22T17:14:07;12.45;;;5.70;;
70303;SDS011;57712;48.752;11.348;2023-06-22T17:17:38;15.52;;;6.28;;
70303;SDS011;57712;48.752;11.348;2023-06-22T17:21:05;12.30;;;5.83;;
70303;SDS011;57712;48.752;11.348;2023-06-22T17:24:30;14.00;;;6.13;;
70303;SDS011;57712;48.752;11.348;2023-06-22T17:27:59;13.10;;;6.13;;
70303;SDS011;57712;48.752;11.348;2023-06-22T17:31:37;13.80;;;6.03;;
70303;SDS011;57712;48.752;11.348;2023-06-22T17:35:03;10.27;;;5.72;;
70303;SDS011;57712;48.752;11.348;2023-06-22T17:38:29;15.07;;;6.63;;
70303;SDS011;57712;48.752;11.348;2023-06-22T17:41:57;13.40;;;6.03;;
70303;SDS011;57712;48.752;11.348;2023-06-22T17:45:39;14.13;;;6.70;;
70303;SDS011;57712;48.752;11.348;2023-06-22T17:49:08;14.63;;;6.60;;
70303;SDS011;57712;48.752;11.348;2023-06-22T17:52:34;12.60;;;6.60;;
70303;SDS011;57712;48.752;11.348;2023-06-22T17:55:59;13.93;;;5.90;;
70303;SDS011;57712;48.752;11.348;2023-06-22T17:59:28;18.00;;;6.47;;
70303;SDS011;57712;48.752;11.348;2023-06-22T18:02:54;13.20;;;6.25;;
70303;SDS011;57712;48.752;11.348;2023-06-22T18:06:19;15.05;;;5.70;;
70303;SDS011;57712;48.752;11.348;2023-06-22T18:09:45;12.18;;;6.32;;
70303;SDS011;57712;48.752;11.348;2023-06-22T18:13:11;14.37;;;5.50;;
70303;SDS011;57712;48.752;11.348;2023-06-22T18:16:39;12.23;;;6.55;;
70303;SDS011;57712;48.752;11.348;2023-06-22T18:20:07;15.95;;;7.00;;
70303;SDS011;57712;48.752;11.348;2023-06-22T18:23:33;16.40;;;6.93;;
70303;SDS011;57712;48.752;11.348;2023-06-22T18:26:59;15.75;;;7.25;;
70303;SDS011;57712;48.752;11.348;2023-06-22T18:30:25;20.30;;;7.63;;
70303;SDS011;57712;48.752;11.348;2023-06-22T18:33:52;16.50;;;7.68;;
70303;SDS011;57712;48.752;11.348;2023-06-22T18:37:18;16.35;;;7.60;;
70303;SDS011;57712;48.752;11.348;2023-06-22T18:40:49;15.57;;;8.07;;
70303;SDS011;57712;48.752;11.348;2023-06-22T18:51:25;17.45;;;8.10;;
70303;SDS011;57712;48.752;11.348;2023-06-22T18:54:51;16.00;;;7.72;;
70303;SDS011;57712;48.752;11.348;2023-06-22T18:58:18;17.05;;;7.88;;
70303;SDS011;57712;48.752;11.348;2023-06-22T19:02:08;15.55;;;7.90;;
70303;SDS011;57712;48.752;11.348;2023-06-22T19:09:19;14.93;;;7.45;;
70303;SDS011;57712;48.752;11.348;2023-06-22T19:12:47;15.88;;;7.40;;
70303;SDS011;57712;48.752;11.348;2023-06-22T19:16:14;16.00;;;7.70;;
70303;SDS011;57712;48.752;11.348;2023-06-22T19:19:45;14.25;;;8.38;;
70303;SDS011;57712;48.752;11.348;2023-06-22T19:26:56;16.25;;;9.05;;
70303;SDS011;57712;48.752;11.348;2023-06-22T19:30:23;17.48;;;8.63;;
70303;SDS011;57712;48.752;11.348;2023-06-22T19:33:53;15.10;;;7.68;;
70303;SDS011;57712;48.752;11.348;2023-06-22T19:37:18;18.83;;;8.30;;
70303;SDS011;57712;48.752;11.348;2023-06-22T19:40:45;13.47;;;7.30;;
70303;SDS011;57712;48.752;11.348;2023-06-22T19:44:11;16.58;;;7.80;;
70303;SDS011;57712;48.752;11.348;2023-06-22T19:47:42;19.77;;;7.97;;
70303;SDS011;57712;48.752;11.348;2023-06-22T19:51:07;13.77;;;5.93;;
70303;SDS011;57712;48.752;11.348;2023-06-22T19:54:33;11.82;;;5.15;;
70303;SDS011;57712;48.752;11.348;2023-06-22T19:57:59;14.20;;;3.90;;
70303;SDS011;57712;48.752;11.348;2023-06-22T20:01:38;10.90;;;3.70;;
70303;SDS011;57712;48.752;11.348;2023-06-22T20:05:07;11.13;;;3.83;;
70303;SDS011;57712;48.752;11.348;2023-06-22T20:12:09;18.92;;;3.80;;
70303;SDS011;57712;48.752;11.348;2023-06-22T20:15:39;8.47;;;3.13;;
70303;SDS011;57712;48.752;11.348;2023-06-22T20:19:13;8.52;;;3.47;;
70303;SDS011;57712;48.752;11.348;2023-06-22T20:22:45;20.27;;;4.43;;
70303;SDS011;57712;48.752;11.348;2023-06-22T20:26:11;14.88;;;5.28;;
70303;SDS011;57712;48.752;11.348;2023-06-22T20:29:38;13.35;;;4.40;;
70303;SDS011;57712;48.752;11.348;2023-06-22T20:33:13;13.37;;;4.23;;
70303;SDS011;57712;48.752;11.348;2023-06-22T20:36:40;15.73;;;4.00;;